Time;durP1;ratioP1;P1;durP2;ratioP2;P2;SDS_P1;SDS_P2;PMS_P1;PMS_P2;Temp;Humidity;BMP_temperature;BMP_pressure;BME280_temperature;BME280_humidity;BME280_pressure;Samples;Min_cycle;Max_cycle;Signal;HPM_P1;HPM_P2
2023/08/24 00:00:20;;;;;;;7.00;4.68;;;;;;;;;;5057372;28;20037;-77
2023/08/24 00:02:47;;;;;;;9.93;5.35;;;;;;;;;;5056102;28;20025;-76
2023/08/24 00:05:13;;;;;;;8.13;4.88;;;;;;;;;;5039694;28;20036;-75
2023/08/24 00:07:39;;;;;;;9.23;4.70;;;;;;;;;;5056775;28;20039;-75
2023/08/24 00:10:07;;;;;;;5.47;4.75;;;;;;;;;;5058169;28;20037;-76
2023/08/24 00:12:35;;;;;;;6.22;5.10;;;;;;;;;;5058215;28;20102;-75
2023/08/24 00:15:01;;;;;;;5.38;4.75;;;;;;;;;;5056114;28;20025;-75
2023/08/24 00:17:26;;;;;;;8.50;5.13;;;;;;;;;;5056604;28;20021;-78
2023/08/24 00:19:52;;;;;;;5.18;4.68;;;;;;;;;;5057019;28;20029;-77
2023/08/24 00:22:19;;;;;;;6.28;4.70;;;;;;;;;;5056901;28;20055;-76
2023/08/24 00:24:45;;;;;;;6.30;5.13;;;;;;;;;;5058045;28;20047;-76
2023/08/24 00:27:13;;;;;;;7.40;5.30;;;;;;;;;;5057611;28;20037;-75
2023/08/24 00:29:39;;;;;;;10.82;4.93;;;;;;;;;;5056881;28;20092;-75
2023/08/24 00:32:04;;;;;;;9.00;5.72;;;;;;;;;;5056376;28;20583;-75
2023/08/24 00:34:30;;;;;;;9.88;5.25;;;;;;;;;;5056324;28;20024;-76
2023/08/24 00:36:56;;;;;;;6.68;5.30;;;;;;;;;;5057322;28;20039;-74
2023/08/24 00:39:21;;;;;;;11.60;5.82;;;;;;;;;;5057898;28;20104;-77
2023/08/24 00:41:48;;;;;;;8.25;5.25;;;;;;;;;;5055914;28;20346;-76
2023/08/24 00:44:15;;;;;;;7.43;5.47;;;;;;;;;;5057190;28;20021;-75
2023/08/24 00:46:41;;;;;;;8.20;5.30;;;;;;;;;;5057310;28;20024;-76
2023/08/24 00:49:07;;;;;;;127.40;13.23;;;;;;;;;;5056741;28;20104;-75
2023/08/24 00:51:34;;;;;;;11.05;5.88;;;;;;;;;;5055713;28;20476;-74
2023/08/24 00:54:00;;;;;;;9.57;5.88;;;;;;;;;;5038946;28;20071;-75
2023/08/24 00:56:26;;;;;;;11.63;5.45;;;;;;;;;;5055457;28;20048;-76
2023/08/24 00:58:55;;;;;;;9.27;5.45;;;;;;;;;;5056721;28;20496;-75
2023/08/24 01:01:20;;;;;;;6.63;5.13;;;;;;;;;;5055446;28;20063;-76
2023/08/24 01:03:46;;;;;;;8.35;5.32;;;;;;;;;;5055312;28;20078;-75
2023/08/24 01:06:12;;;;;;;9.07;5.15;;;;;;;;;;5055590;28;20032;-76
2023/08/24 01:08:39;;;;;;;6.47;5.03;;;;;;;;;;5054916;28;20029;-75
2023/08/24 01:11:13;;;;;;;7.47;5.28;;;;;;;;;;5055227;28;20123;-76
2023/08/24 01:14:04;;;;;;;8.85;5.63;;;;;;;;;;5056722;28;20033;-76
2023/08/24 01:16:33;;;;;;;8.48;5.55;;;;;;;;;;5055393;28;20028;-76
2023/08/24 01:18:59;;;;;;;31.63;7.22;;;;;;;;;;5056818;28;20025;-77
2023/08/24 01:21:28;;;;;;;9.43;5.22;;;;;;;;;;5056048;28;20036;-75
2023/08/24 01:24:04;;;;;;;9.65;5.88;;;;;;;;;;5055485;28;20090;-76
2023/08/24 01:26:30;;;;;;;8.15;5.88;;;;;;;;;;5054881;28;20523;-76
2023/08/24 01:28:59;;;;;;;7.45;5.35;;;;;;;;;;5057304;28;20108;-76
2023/08/24 01:31:25;;;;;;;8.02;6.07;;;;;;;;;;5039009;28;20082;-77
2023/08/24 01:33:51;;;;;;;8.88;5.93;;;;;;;;;;5056811;28;20040;-76
2023/08/24 01:36:17;;;;;;;8.73;5.07;;;;;;;;;;5055232;28;20029;-75
2023/08/24 01:38:43;;;;;;;7.68;5.07;;;;;;;;;;5054478;28;20025;-75
2023/08/24 01:41:23;;;;;;;6.60;5.50;;;;;;;;;;5054349;28;20086;-77
2023/08/24 01:44:04;;;;;;;15.63;6.30;;;;;;;;;;5055659;28;20021;-77
2023/08/24 01:46:31;;;;;;;8.57;5.68;;;;;;;;;;5056827;28;20029;-76
2023/08/24 01:48:58;;;;;;;12.02;6.55;;;;;;;;;;5056775;28;20392;-78
2023/08/24 01:51:24;;;;;;;7.28;5.22;;;;;;;;;;5054854;28;20035;-75
2023/08/24 01:53:51;;;;;;;7.68;6.05;;;;;;;;;;5056182;28;20500;-76
2023/08/24 01:56:17;;;;;;;6.38;5.78;;;;;;;;;;5054340;28;20413;-76
2023/08/24 01:58:44;;;;;;;8.50;5.75;;;;;;;;;;5052220;28;20416;-75
2023/08/24 02:01:12;;;;;;;9.50;6.00;;;;;;;;;;5022947;28;20039;-75
2023/08/24 02:03:39;;;;;;;7.85;5.53;;;;;;;;;;5059464;28;20025;-76
2023/08/24 02:06:06;;;;;;;5.60;5.00;;;;;;;;;;5055735;28;20380;-77
2023/08/24 02:08:32;;;;;;;9.23;5.55;;;;;;;;;;5062750;28;20020;-76
2023/08/24 02:10:58;;;;;;;7.68;5.63;;;;;;;;;;5037946;28;20028;-75
2023/08/24 02:13:24;;;;;;;8.05;5.68;;;;;;;;;;5055421;28;20108;-78
2023/08/24 02:15:50;;;;;;;8.63;5.60;;;;;;;;;;5054073;28;20581;-76
2023/08/24 02:18:16;;;;;;;9.02;6.15;;;;;;;;;;5055416;28;20047;-76
2023/08/24 02:20:42;;;;;;;11.68;5.95;;;;;;;;;;5058624;28;20092;-77
2023/08/24 02:23:14;;;;;;;7.57;5.97;;;;;;;;;;5056990;28;20063;-77
2023/08/24 02:25:43;;;;;;;12.48;6.05;;;;;;;;;;5058172;28;20029;-76
2023/08/24 02:28:15;;;;;;;11.48;6.57;;;;;;;;;;5056616;28;20376;-76
2023/08/24 02:30:40;;;;;;;10.00;5.45;;;;;;;;;;5058593;28;20040;-77
2023/08/24 02:33:07;;;;;;;9.60;6.28;;;;;;;;;;5057161;28;20112;-75
2023/08/24 02:35:33;;;;;;;7.35;5.50;;;;;;;;;;5056742;28;20029;-76
2023/08/24 02:37:59;;;;;;;10.55;5.85;;;;;;;;;;5056616;28;20051;-76
2023/08/24 02:40:25;;;;;;;10.57;5.57;;;;;;;;;;5056879;28;20516;-76
2023/08/24 02:42:54;;;;;;;8.50;6.10;;;;;;;;;;5061577;28;20090;-76
2023/08/24 02:45:21;;;;;;;9.00;5.85;;;;;;;;;;5061155;28;20021;-76
2023/08/24 02:47:51;;;;;;;7.85;5.50;;;;;;;;;;5060971;28;20049;-76
2023/08/24 02:50:17;;;;;;;17.25;5.63;;;;;;;;;;5061985;28;20156;-76
2023/08/24 02:52:42;;;;;;;9.18;5.63;;;;;;;;;;5062108;28;20029;-78
2023/08/24 02:55:09;;;;;;;8.85;5.90;;;;;;;;;;5060525;28;20039;-76
2023/08/24 02:57:38;;;;;;;7.05;5.82;;;;;;;;;;5060213;28;20053;-76
2023/08/24 03:00:06;;;;;;;6.80;5.93;;;;;;;;;;5060746;28;20231;-76
2023/08/24 03:02:33;;;;;;;6.18;5.57;;;;;;;;;;5058617;28;20020;-76
2023/08/24 03:04:58;;;;;;;7.47;5.65;;;;;;;;;;5057854;28;20033;-74
2023/08/24 03:07:24;;;;;;;8.13;5.57;;;;;;;;;;5058065;28;20086;-75
2023/08/24 03:09:50;;;;;;;11.00;6.10;;;;;;;;;;5058965;28;20033;-75
2023/08/24 03:12:18;;;;;;;11.02;5.93;;;;;;;;;;5058087;28;20035;-75
2023/08/24 03:14:44;;;;;;;9.23;6.47;;;;;;;;;;5059148;28;20104;-75
2023/08/24 03:17:10;;;;;;;9.75;6.07;;;;;;;;;;5057240;28;20036;-77
2023/08/24 03:19:35;;;;;;;8.02;5.57;;;;;;;;;;5058712;28;20055;-75
2023/08/24 03:22:02;;;;;;;12.10;6.43;;;;;;;;;;5058392;28;20032;-75
2023/08/24 03:24:27;;;;;;;19.58;6.32;;;;;;;;;;5058502;28;20114;-75
2023/08/24 03:26:53;;;;;;;14.10;6.47;;;;;;;;;;5057073;28;20521;-75
2023/08/24 03:29:19;;;;;;;11.38;6.35;;;;;;;;;;5058379;28;20025;-75
2023/08/24 03:31:45;;;;;;;10.18;5.82;;;;;;;;;;5057262;28;20035;-76
2023/08/24 03:34:10;;;;;;;14.38;7.10;;;;;;;;;;5058352;28;20036;-76
2023/08/24 03:36:37;;;;;;;11.02;6.45;;;;;;;;;;5056504;28;20029;-76
2023/08/24 03:39:03;;;;;;;7.78;5.90;;;;;;;;;;5058758;28;20063;-77
2023/08/24 03:41:29;;;;;;;10.27;6.72;;;;;;;;;;5058729;28;20039;-76
2023/08/24 03:43:55;;;;;;;9.35;6.88;;;;;;;;;;5058238;28;20108;-76
2023/08/24 03:46:20;;;;;;;12.98;7.18;;;;;;;;;;5058132;28;20051;-76
2023/08/24 03:48:46;;;;;;;10.35;6.30;;;;;;;;;;5059250;28;20056;-77
2023/08/24 03:51:12;;;;;;;11.35;6.53;;;;;;;;;;5057203;28;20020;-75
2023/08/24 03:53:38;;;;;;;9.55;6.95;;;;;;;;;;5056399;28;20050;-76
2023/08/24 03:56:04;;;;;;;9.20;6.45;;;;;;;;;;5057361;28;20045;-76
2023/08/24 03:58:30;;;;;;;8.60;6.32;;;;;;;;;;5058479;28;20033;-76
2023/08/24 04:00:56;;;;;;;7.90;6.40;;;;;;;;;;5058143;28;20021;-76
2023/08/24 04:03:22;;;;;;;16.35;6.65;;;;;;;;;;5058306;28;20029;-76
2023/08/24 04:05:50;;;;;;;9.52;8.18;;;;;;;;;;5056687;28;20092;-76
2023/08/24 04:08:16;;;;;;;12.93;7.53;;;;;;;;;;5056150;28;20122;-78
2023/08/24 04:10:42;;;;;;;9.00;6.35;;;;;;;;;;5056605;28;20432;-77
2023/08/24 04:13:09;;;;;;;8.38;6.63;;;;;;;;;;5058214;28;20025;-78
2023/08/24 04:15:34;;;;;;;7.57;6.40;;;;;;;;;;5058550;28;20452;-75
2023/08/24 04:18:00;;;;;;;11.55;5.63;;;;;;;;;;5057469;28;20088;-76
2023/08/24 04:20:26;;;;;;;8.85;6.25;;;;;;;;;;5056700;28;20055;-75
2023/08/24 04:22:56;;;;;;;8.65;6.55;;;;;;;;;;5057963;28;20264;-74
2023/08/24 04:25:22;;;;;;;8.80;5.95;;;;;;;;;;5057171;28;20116;-75
2023/08/24 04:27:48;;;;;;;8.50;6.90;;;;;;;;;;5058498;28;20068;-75
2023/08/24 04:30:13;;;;;;;12.23;6.28;;;;;;;;;;5056125;28;20028;-77
2023/08/24 04:32:39;;;;;;;7.15;5.57;;;;;;;;;;5056653;28;20021;-75
2023/08/24 04:35:08;;;;;;;10.95;6.50;;;;;;;;;;5056842;28;20119;-77
2023/08/24 04:37:34;;;;;;;16.70;6.40;;;;;;;;;;5058463;28;20028;-75
2023/08/24 04:40:00;;;;;;;7.93;6.03;;;;;;;;;;5056930;28;20029;-77
2023/08/24 04:42:25;;;;;;;11.35;6.70;;;;;;;;;;5056918;28;20027;-75
2023/08/24 04:44:54;;;;;;;19.02;7.43;;;;;;;;;;5058579;28;20511;-76
2023/08/24 04:47:20;;;;;;;27.05;7.72;;;;;;;;;;5057387;28;20087;-76
2023/08/24 04:49:46;;;;;;;8.50;6.43;;;;;;;;;;5058474;28;20021;-78
2023/08/24 04:52:14;;;;;;;11.95;7.05;;;;;;;;;;5058066;28;20370;-77
2023/08/24 04:54:40;;;;;;;14.05;8.63;;;;;;;;;;5056493;28;20051;-76
2023/08/24 04:57:06;;;;;;;9.95;6.78;;;;;;;;;;5055001;28;20037;-75
2023/08/24 04:59:32;;;;;;;15.75;6.32;;;;;;;;;;5037456;28;20580;-76
2023/08/24 05:01:58;;;;;;;15.68;6.97;;;;;;;;;;5043283;28;20032;-74
2023/08/24 05:04:24;;;;;;;8.55;6.25;;;;;;;;;;5049040;28;20481;-74
2023/08/24 05:06:50;;;;;;;8.30;6.00;;;;;;;;;;5055918;28;20085;-75
2023/08/24 05:09:16;;;;;;;7.05;6.28;;;;;;;;;;5047998;28;20040;-75
2023/08/24 05:11:47;;;;;;;13.20;6.43;;;;;;;;;;5056913;28;20033;-77
2023/08/24 05:14:13;;;;;;;;;;;;;;;;;;5041498;28;20196;-76
2023/08/24 05:16:40;;;;;;;8.52;6.32;;;;;;;;;;5035574;28;20439;-75
2023/08/24 05:19:07;;;;;;;14.98;7.97;;;;;;;;;;5048682;28;20029;-76
2023/08/24 05:21:36;;;;;;;14.93;7.00;;;;;;;;;;5054808;28;20123;-75
2023/08/24 05:24:04;;;;;;;8.15;6.55;;;;;;;;;;5050548;28;20092;-75
2023/08/24 05:26:30;;;;;;;10.70;7.05;;;;;;;;;;5052522;28;20428;-75
2023/08/24 05:28:56;;;;;;;12.02;7.85;;;;;;;;;;5057029;28;20048;-78
2023/08/24 05:31:22;;;;;;;10.00;8.95;;;;;;;;;;5050514;28;20063;-75
2023/08/24 05:33:48;;;;;;;15.75;9.48;;;;;;;;;;5051456;28;20160;-76
2023/08/24 05:36:16;;;;;;;12.82;7.63;;;;;;;;;;5054695;28;20371;-76
2023/08/24 05:38:46;;;;;;;7.90;6.68;;;;;;;;;;5045377;28;20102;-79
2023/08/24 05:41:12;;;;;;;15.32;6.82;;;;;;;;;;5048181;28;20036;-74
2023/08/24 05:43:40;;;;;;;17.55;15.75;;;;;;;;;;5052574;28;20041;-76
2023/08/24 05:46:08;;;;;;;9.07;7.80;;;;;;;;;;5042743;28;20056;-77
2023/08/24 05:48:34;;;;;;;20.20;7.68;;;;;;;;;;5042689;28;20041;-77
2023/08/24 05:51:00;;;;;;;9.90;7.50;;;;;;;;;;5047488;28;20469;-77
2023/08/24 05:53:26;;;;;;;12.52;7.80;;;;;;;;;;5051890;28;20041;-76
2023/08/24 05:55:58;;;;;;;10.73;8.25;;;;;;;;;;5048798;28;20048;-78
2023/08/24 05:58:27;;;;;;;15.63;8.27;;;;;;;;;;5042269;28;20021;-75
2023/08/24 06:01:01;;;;;;;13.77;8.63;;;;;;;;;;5065055;28;20603;-76
2023/08/24 06:03:27;;;;;;;15.20;7.63;;;;;;;;;;5049434;28;20048;-75
2023/08/24 06:05:53;;;;;;;11.20;7.30;;;;;;;;;;5044883;28;20030;-78
2023/08/24 06:08:19;;;;;;;9.85;6.97;;;;;;;;;;5046785;28;20136;-78
2023/08/24 06:10:48;;;;;;;12.63;7.13;;;;;;;;;;5045557;28;20496;-77
2023/08/24 06:13:13;;;;;;;12.63;7.85;;;;;;;;;;5046398;28;20025;-77
2023/08/24 06:15:42;;;;;;;15.40;6.97;;;;;;;;;;5054203;28;20108;-78
2023/08/24 06:18:11;;;;;;;11.90;7.75;;;;;;;;;;5045671;28;20024;-77
2023/08/24 06:20:37;;;;;;;11.65;7.82;;;;;;;;;;5059723;28;20016;-77
2023/08/24 06:23:07;;;;;;;14.43;8.30;;;;;;;;;;5050572;28;20029;-76
2023/08/24 06:25:39;;;;;;;18.20;8.73;;;;;;;;;;5050020;28;20077;-78
2023/08/24 06:28:11;;;;;;;14.85;8.65;;;;;;;;;;5035789;28;20129;-78
2023/08/24 06:30:53;;;;;;;;;;;;;;;;;;;;;
2023/08/24 06:33:20;;;;;;;15.32;8.07;;;;;;;;;;5047289;28;20033;-77
2023/08/24 06:35:51;;;;;;;13.38;8.52;;;;;;;;;;5056018;28;20533;-79
2023/08/24 06:38:23;;;;;;;11.45;8.35;;;;;;;;;;5051101;28;20045;-78
2023/08/24 06:41:12;;;;;;;;;;;;;;;;;;;;;
2023/08/24 06:43:42;;;;;;;16.90;8.68;;;;;;;;;;5030723;28;20569;-80
2023/08/24 06:46:10;;;;;;;14.00;8.32;;;;;;;;;;5065214;28;20075;-79
2023/08/24 06:48:48;;;;;;;13.57;8.40;;;;;;;;;;5064639;28;20088;-81
2023/08/24 06:51:14;;;;;;;12.45;7.70;;;;;;;;;;5056609;28;20097;-79
2023/08/24 06:53:40;;;;;;;30.27;18.42;;;;;;;;;;5066216;28;20115;-79
2023/08/24 06:56:18;;;;;;;12.55;10.13;;;;;;;;;;5061098;28;20064;-78
2023/08/24 07:02:21;;;;;;;13.10;7.82;;;;;;;;;;5086652;28;20062;-80
2023/08/24 07:04:48;;;;;;;16.50;8.35;;;;;;;;;;5048188;28;20048;-82
2023/08/24 07:07:23;;;;;;;15.80;8.48;;;;;;;;;;5040713;28;20040;-79
2023/08/24 07:09:52;;;;;;;12.00;8.05;;;;;;;;;;5046244;28;20048;-82
2023/08/24 07:12:21;;;;;;;11.75;8.20;;;;;;;;;;5039422;28;20128;-82
2023/08/24 07:14:47;;;;;;;12.73;7.95;;;;;;;;;;5055544;28;20029;-80
2023/08/24 07:17:13;;;;;;;19.20;7.78;;;;;;;;;;5046514;28;20381;-80
2023/08/24 07:19:40;;;;;;;14.65;7.65;;;;;;;;;;5055386;28;20040;-84
2023/08/24 07:22:06;;;;;;;13.65;6.80;;;;;;;;;;5052977;28;20020;-79
2023/08/24 07:24:33;;;;;;;13.32;7.47;;;;;;;;;;5052845;28;20088;-78
2023/08/24 07:27:00;;;;;;;11.70;8.38;;;;;;;;;;5039784;28;20091;-80
2023/08/24 07:29:31;;;;;;;13.82;7.30;;;;;;;;;;5044299;28;20055;-82
2023/08/24 07:32:06;;;;;;;;;;;;;;;;;;5046581;28;20115;-82
2023/08/24 07:34:32;;;;;;;13.80;7.13;;;;;;;;;;5037734;28;20744;-81
2023/08/24 07:36:58;;;;;;;13.02;6.97;;;;;;;;;;5045624;28;20079;-78
2023/08/24 07:39:23;;;;;;;19.27;6.97;;;;;;;;;;5043856;28;20036;-80
2023/08/24 07:41:49;;;;;;;12.45;7.20;;;;;;;;;;5045595;28;20029;-78
2023/08/24 07:44:15;;;;;;;11.98;6.97;;;;;;;;;;5041368;28;20473;-77
2023/08/24 07:46:40;;;;;;;15.52;7.47;;;;;;;;;;5044884;28;20155;-79
2023/08/24 07:49:07;;;;;;;14.60;7.10;;;;;;;;;;5042076;28;20095;-80
2023/08/24 07:51:33;;;;;;;14.32;7.57;;;;;;;;;;5043790;28;20176;-81
2023/08/24 07:54:01;;;;;;;13.95;6.85;;;;;;;;;;5042982;28;20050;-79
2023/08/24 07:56:26;;;;;;;11.18;6.95;;;;;;;;;;5041038;28;20049;-81
2023/08/24 07:58:57;;;;;;;14.30;7.63;;;;;;;;;;5042495;28;20075;-79
2023/08/24 08:01:26;;;;;;;10.50;6.90;;;;;;;;;;5040817;28;20044;-77
2023/08/24 08:03:55;;;;;;;12.73;7.35;;;;;;;;;;5045454;28;20040;-81
2023/08/24 08:06:24;;;;;;;15.13;7.03;;;;;;;;;;5040587;28;20455;-79
2023/08/24 08:08:51;;;;;;;13.88;7.20;;;;;;;;;;5045689;28;20033;-79
2023/08/24 08:11:17;;;;;;;10.45;7.55;;;;;;;;;;5037644;28;20104;-78
2023/08/24 08:13:44;;;;;;;12.57;7.50;;;;;;;;;;5043107;28;20098;-78
2023/08/24 08:16:09;;;;;;;13.30;7.00;;;;;;;;;;5046601;28;20036;-80
2023/08/24 08:18:48;;;;;;;14.90;8.20;;;;;;;;;;5049616;28;20028;-83
2023/08/24 08:21:17;;;;;;;11.18;6.95;;;;;;;;;;5047248;28;20029;-81
2023/08/24 08:23:45;;;;;;;32.67;8.55;;;;;;;;;;5042363;28;20107;-80
2023/08/24 08:26:12;;;;;;;17.35;7.72;;;;;;;;;;5041158;28;20445;-80
2023/08/24 08:28:37;;;;;;;12.75;7.47;;;;;;;;;;5038622;28;20032;-80
2023/08/24 08:31:03;;;;;;;8.05;5.85;;;;;;;;;;5040914;28;20059;-79
2023/08/24 08:33:31;;;;;;;14.27;6.00;;;;;;;;;;5045231;28;20033;-80
2023/08/24 08:35:57;;;;;;;11.15;5.53;;;;;;;;;;5042395;28;20396;-78
2023/08/24 08:38:25;;;;;;;8.85;4.55;;;;;;;;;;5044942;28;20021;-81
2023/08/24 08:40:59;;;;;;;10.63;4.90;;;;;;;;;;5049444;28;20959;-79
2023/08/24 08:43:25;;;;;;;9.60;4.68;;;;;;;;;;5050329;28;20469;-81
2023/08/24 08:45:59;;;;;;;13.23;5.40;;;;;;;;;;5041374;28;20041;-81
2023/08/24 08:48:25;;;;;;;16.52;5.00;;;;;;;;;;5048119;28;20127;-82
2023/08/24 08:51:09;;;;;;;10.68;4.55;;;;;;;;;;5052203;28;20083;-80
2023/08/24 08:53:36;;;;;;;9.77;3.83;;;;;;;;;;5056795;28;20033;-82
2023/08/24 08:56:06;;;;;;;8.77;3.58;;;;;;;;;;5049046;28;20087;-82
2023/08/24 08:58:34;;;;;;;11.93;4.22;;;;;;;;;;5049015;28;20028;-81
2023/08/24 09:01:04;;;;;;;10.38;3.47;;;;;;;;;;5048040;28;20037;-79
2023/08/24 09:03:32;;;;;;;6.15;3.88;;;;;;;;;;5047688;28;20032;-81
2023/08/24 09:05:58;;;;;;;8.38;4.35;;;;;;;;;;5050723;28;20025;-78
2023/08/24 09:08:52;;;;;;;5.38;3.75;;;;;;;;;;5043057;28;20033;-82
2023/08/24 09:11:18;;;;;;;11.90;4.05;;;;;;;;;;5034280;28;20101;-80
2023/08/24 09:13:53;;;;;;;7.22;3.80;;;;;;;;;;5047583;28;20029;-82
2023/08/24 09:16:20;;;;;;;7.03;3.60;;;;;;;;;;5047485;28;20033;-81
2023/08/24 09:18:55;;;;;;;7.88;5.60;;;;;;;;;;5048221;28;20730;-80
2023/08/24 09:21:36;;;;;;;17.15;6.47;;;;;;;;;;5046231;28;20025;-81
2023/08/24 09:24:08;;;;;;;12.35;6.30;;;;;;;;;;5043423;28;20845;-82
2023/08/24 09:26:46;;;;;;;10.88;5.10;;;;;;;;;;5043126;28;20682;-83
2023/08/24 09:29:16;;;;;;;6.97;4.40;;;;;;;;;;5041285;28;20033;-82
2023/08/24 09:31:45;;;;;;;4.68;4.13;;;;;;;;;;5060673;28;20494;-80
2023/08/24 09:34:12;;;;;;;5.68;3.72;;;;;;;;;;5042865;28;20127;-79
2023/08/24 09:36:41;;;;;;;5.43;3.92;;;;;;;;;;5043058;28;20105;-80
2023/08/24 09:39:10;;;;;;;7.03;4.65;;;;;;;;;;5037091;28;20032;-77
2023/08/24 09:41:47;;;;;;;11.48;4.85;;;;;;;;;;5048769;28;20126;-80
2023/08/24 09:44:22;;;;;;;6.60;3.70;;;;;;;;;;5044659;28;20381;-80
2023/08/24 09:47:09;;;;;;;8.00;3.85;;;;;;;;;;5042318;28;20093;-82
2023/08/24 09:50:04;;;;;;;8.80;3.55;;;;;;;;;;5044408;28;20058;-79
2023/08/24 09:52:37;;;;;;;10.55;4.40;;;;;;;;;;5053320;28;20029;-82
2023/08/24 09:55:12;;;;;;;9.30;4.57;;;;;;;;;;5038913;28;20536;-79
2023/08/24 09:57:46;;;;;;;5.72;3.50;;;;;;;;;;5050046;28;20075;-82
2023/08/24 10:00:25;;;;;;;9.43;4.03;;;;;;;;;;5051088;28;20033;-78
2023/08/24 10:03:07;;;;;;;;;;;;;;;;;;;;;
2023/08/24 10:05:47;;;;;;;;;;;;;;;;;;;;;
2023/08/24 10:08:30;;;;;;;6.43;3.75;;;;;;;;;;5042251;28;20016;-78
2023/08/24 10:11:03;;;;;;;6.85;4.03;;;;;;;;;;5042995;28;20082;-79
2023/08/24 10:13:49;;;;;;;6.93;4.05;;;;;;;;;;5041257;28;20161;-77
2023/08/24 10:16:35;;;;;;;13.02;4.22;;;;;;;;;;5037676;28;20031;-79
2023/08/24 10:19:33;;;;;;;8.48;4.00;;;;;;;;;;5042038;28;20144;-79
2023/08/24 10:22:05;;;;;;;6.32;4.10;;;;;;;;;;5034691;28;20064;-82
2023/08/24 10:24:35;;;;;;;6.13;3.80;;;;;;;;;;5038519;28;20120;-80
2023/08/24 10:27:03;;;;;;;12.53;4.30;;;;;;;;;;5035032;28;20726;-81
2023/08/24 10:29:32;;;;;;;13.65;4.25;;;;;;;;;;5016558;28;20368;-84
2023/08/24 10:32:05;;;;;;;8.82;3.92;;;;;;;;;;5045123;28;20025;-78
2023/08/24 10:35:15;;;;;;;4.43;4.03;;;;;;;;;;5039745;28;20033;-80
2023/08/24 10:45:19;;;;;;;;;;;;;;;;;;;;;
2023/08/24 10:47:53;;;;;;;11.90;5.53;;;;;;;;;;4973709;28;20103;-77
2023/08/24 10:50:51;;;;;;;8.88;4.68;;;;;;;;;;4948507;28;20082;-76
2023/08/24 10:54:14;;;;;;;7.55;4.88;;;;;;;;;;4946051;29;20039;-79
2023/08/24 10:57:08;;;;;;;5.25;4.53;;;;;;;;;;4937635;28;20044;-76
2023/08/24 11:00:05;;;;;;;7.18;5.15;;;;;;;;;;4934862;29;20130;-76
2023/08/24 11:02:48;;;;;;;10.40;4.20;;;;;;;;;;4972136;28;20062;-76
2023/08/24 11:05:43;;;;;;;6.82;4.38;;;;;;;;;;5033897;28;20044;-78
2023/08/24 11:09:02;;;;;;;6.15;3.90;;;;;;;;;;5062775;28;20040;-77
2023/08/24 11:11:44;;;;;;;5.72;4.30;;;;;;;;;;5065660;28;20064;-79
2023/08/24 11:15:10;;;;;;;12.57;4.80;;;;;;;;;;5055863;28;20163;-74
2023/08/24 11:18:29;;;;;;;10.52;4.22;;;;;;;;;;5069910;28;20024;-78
2023/08/24 11:21:34;;;;;;;8.07;4.15;;;;;;;;;;5056866;28;20047;-76
2023/08/24 11:26:29;;;;;;;15.23;4.70;;;;;;;;;;5006976;28;20482;-76
2023/08/24 11:28:57;;;;;;;7.63;3.92;;;;;;;;;;5010256;28;20121;-76
2023/08/24 11:31:23;;;;;;;6.80;3.50;;;;;;;;;;5009996;28;20026;-77
2023/08/24 11:33:57;;;;;;;7.47;4.50;;;;;;;;;;5007209;28;20035;-77
2023/08/24 11:36:26;;;;;;;6.88;4.18;;;;;;;;;;5008530;28;20449;-75
2023/08/24 11:38:57;;;;;;;6.53;4.18;;;;;;;;;;5015675;28;20093;-80
2023/08/24 11:41:26;;;;;;;7.20;3.90;;;;;;;;;;5010171;28;20022;-80
2023/08/24 11:43:59;;;;;;;7.15;4.28;;;;;;;;;;5011148;28;20040;-79
2023/08/24 11:46:27;;;;;;;5.63;4.00;;;;;;;;;;5006719;28;20032;-77
2023/08/24 11:48:53;;;;;;;8.23;4.22;;;;;;;;;;4996145;28;20092;-77
2023/08/24 11:51:18;;;;;;;8.10;5.25;;;;;;;;;;4996596;28;20038;-76
2023/08/24 11:53:46;;;;;;;9.57;4.38;;;;;;;;;;4993080;28;20056;-77
2023/08/24 11:56:13;;;;;;;5.75;4.03;;;;;;;;;;5014046;28;20034;-75
2023/08/24 11:58:43;;;;;;;9.18;5.78;;;;;;;;;;5010456;28;20112;-75
2023/08/24 12:01:10;;;;;;;7.70;4.25;;;;;;;;;;4994595;28;20036;-75
2023/08/24 12:03:36;;;;;;;7.47;4.07;;;;;;;;;;5008661;28;20496;-76
2023/08/24 12:06:09;;;;;;;6.90;4.28;;;;;;;;;;5004461;28;20067;-75
2023/08/24 12:08:46;;;;;;;12.50;4.50;;;;;;;;;;5006825;28;20470;-75
2023/08/24 12:11:18;;;;;;;7.28;3.83;;;;;;;;;;4994230;28;20040;-76
2023/08/24 12:13:49;;;;;;;7.07;3.33;;;;;;;;;;5017405;28;20092;-76
2023/08/24 12:16:18;;;;;;;7.60;3.65;;;;;;;;;;5019489;28;20105;-76
2023/08/24 12:18:59;;;;;;;5.95;3.85;;;;;;;;;;5018019;28;20470;-75
2023/08/24 12:21:29;;;;;;;7.80;4.10;;;;;;;;;;5008306;28;20064;-74
2023/08/24 12:23:56;;;;;;;3.97;3.58;;;;;;;;;;5008475;28;20422;-77
2023/08/24 12:26:23;;;;;;;4.95;3.67;;;;;;;;;;5005189;28;20061;-77
2023/08/24 12:28:52;;;;;;;8.48;3.80;;;;;;;;;;5008351;28;20442;-76
2023/08/24 12:31:20;;;;;;;7.88;3.88;;;;;;;;;;5004355;28;20136;-78
2023/08/24 12:34:06;;;;;;;4.85;3.63;;;;;;;;;;5009576;28;20041;-76
2023/08/24 12:36:33;;;;;;;3.92;3.30;;;;;;;;;;5004622;28;20495;-76
2023/08/24 12:39:01;;;;;;;5.88;4.13;;;;;;;;;;5013881;28;20477;-76
2023/08/24 12:41:26;;;;;;;6.35;4.15;;;;;;;;;;5013753;28;20037;-75
2023/08/24 12:43:52;;;;;;;10.18;4.18;;;;;;;;;;5010064;28;20033;-76
2023/08/24 12:46:24;;;;;;;5.40;3.38;;;;;;;;;;5004612;28;20053;-77
2023/08/24 12:48:52;;;;;;;8.85;3.60;;;;;;;;;;5019826;28;20065;-77
2023/08/24 12:51:18;;;;;;;6.60;3.63;;;;;;;;;;5010063;28;20470;-76
2023/08/24 12:53:44;;;;;;;6.20;3.60;;;;;;;;;;5009422;28;20087;-76
2023/08/24 12:56:10;;;;;;;5.50;3.60;;;;;;;;;;5007967;28;20033;-76
2023/08/24 12:58:36;;;;;;;6.50;3.30;;;;;;;;;;5003703;28;20105;-76
2023/08/24 13:01:02;;;;;;;3.65;3.05;;;;;;;;;;5018097;28;20053;-74
2023/08/24 13:03:28;;;;;;;8.75;2.97;;;;;;;;;;5026152;28;20354;-76
2023/08/24 13:05:53;;;;;;;7.57;3.75;;;;;;;;;;5023187;28;20149;-78
2023/08/24 13:08:19;;;;;;;5.53;3.45;;;;;;;;;;5018707;28;20030;-75
2023/08/24 13:10:52;;;;;;;6.68;3.45;;;;;;;;;;5011578;28;20374;-74
2023/08/24 13:13:20;;;;;;;11.13;3.28;;;;;;;;;;5004854;28;20093;-75
2023/08/24 13:15:50;;;;;;;9.15;3.00;;;;;;;;;;5006782;28;20034;-77
2023/08/24 13:18:17;;;;;;;4.93;2.80;;;;;;;;;;5005887;28;20080;-76
2023/08/24 13:20:43;;;;;;;3.72;3.08;;;;;;;;;;5006245;28;20554;-75
2023/08/24 13:23:08;;;;;;;6.18;3.80;;;;;;;;;;5023788;28;20036;-75
2023/08/24 13:25:34;;;;;;;9.25;3.30;;;;;;;;;;5008068;28;20054;-74
2023/08/24 13:27:59;;;;;;;5.32;3.35;;;;;;;;;;5004622;28;20052;-76
2023/08/24 13:30:28;;;;;;;5.90;3.30;;;;;;;;;;5009830;28;20033;-76
2023/08/24 13:32:54;;;;;;;4.85;3.28;;;;;;;;;;5012122;28;20030;-76
2023/08/24 13:35:20;;;;;;;5.68;3.53;;;;;;;;;;5019430;28;20037;-75
2023/08/24 13:37:51;;;;;;;9.75;3.10;;;;;;;;;;5001080;28;20103;-78
2023/08/24 13:40:19;;;;;;;8.10;3.13;;;;;;;;;;4993810;28;20048;-77
2023/08/24 13:42:47;;;;;;;7.95;3.22;;;;;;;;;;5000622;28;20042;-76
2023/08/24 13:45:16;;;;;;;4.20;3.15;;;;;;;;;;5004411;28;20434;-77
2023/08/24 13:47:45;;;;;;;4.82;3.10;;;;;;;;;;5000684;28;20517;-76
2023/08/24 13:50:11;;;;;;;6.95;3.85;;;;;;;;;;5012537;28;20030;-76
2023/08/24 13:52:37;;;;;;;11.77;3.25;;;;;;;;;;5006266;28;20057;-78
2023/08/24 13:55:03;;;;;;;6.95;3.60;;;;;;;;;;5022587;28;20466;-76
2023/08/24 13:57:29;;;;;;;4.97;3.00;;;;;;;;;;5005675;28;20025;-78
2023/08/24 13:59:56;;;;;;;4.15;3.03;;;;;;;;;;5008752;28;20053;-77
2023/08/24 14:02:22;;;;;;;4.43;2.67;;;;;;;;;;5006986;28;20025;-76
2023/08/24 14:04:47;;;;;;;6.03;3.67;;;;;;;;;;5003370;28;20095;-74
2023/08/24 14:07:13;;;;;;;5.95;3.15;;;;;;;;;;5001577;28;20048;-77
2023/08/24 14:09:38;;;;;;;5.10;2.97;;;;;;;;;;5018305;28;20048;-79
2023/08/24 14:12:04;;;;;;;8.02;3.13;;;;;;;;;;5001769;28;20030;-77
2023/08/24 14:14:31;;;;;;;3.85;3.03;;;;;;;;;;5001828;28;20634;-78
2023/08/24 14:16:57;;;;;;;6.40;2.63;;;;;;;;;;4999986;28;20064;-77
2023/08/24 14:19:23;;;;;;;9.18;3.03;;;;;;;;;;5002423;28;20073;-76
2023/08/24 14:21:49;;;;;;;14.00;3.20;;;;;;;;;;5004046;28;20398;-77
2023/08/24 14:24:16;;;;;;;4.28;2.70;;;;;;;;;;4995404;28;20034;-76
2023/08/24 14:26:45;;;;;;;12.43;3.33;;;;;;;;;;5002691;28;20087;-74
2023/08/24 14:29:11;;;;;;;15.13;3.05;;;;;;;;;;5004912;28;20021;-77
2023/08/24 14:31:37;;;;;;;5.78;2.78;;;;;;;;;;5002296;28;20365;-75
2023/08/24 14:34:03;;;;;;;7.80;4.03;;;;;;;;;;5008623;28;20474;-75
2023/08/24 14:36:30;;;;;;;5.05;2.95;;;;;;;;;;5003202;28;20048;-77
2023/08/24 14:38:57;;;;;;;6.30;2.95;;;;;;;;;;5011345;28;20052;-75
2023/08/24 14:41:23;;;;;;;5.90;2.85;;;;;;;;;;5012967;28;20125;-73
2023/08/24 14:43:48;;;;;;;6.72;2.88;;;;;;;;;;5012082;28;20115;-75
2023/08/24 14:46:14;;;;;;;5.72;2.50;;;;;;;;;;5020761;28;20061;-75
2023/08/24 14:48:40;;;;;;;5.07;2.50;;;;;;;;;;5010150;28;20049;-75
2023/08/24 14:51:05;;;;;;;7.53;3.00;;;;;;;;;;5009710;28;20104;-75
2023/08/24 14:53:31;;;;;;;6.57;3.05;;;;;;;;;;5014030;28;20026;-76
2023/08/24 14:55:58;;;;;;;3.80;2.85;;;;;;;;;;5013200;28;20033;-78
2023/08/24 14:58:24;;;;;;;2.33;2.10;;;;;;;;;;5010963;28;20052;-76
2023/08/24 15:00:51;;;;;;;4.32;2.42;;;;;;;;;;4996456;28;20034;-75
2023/08/24 15:03:17;;;;;;;4.20;2.20;;;;;;;;;;5009005;28;20222;-75
2023/08/24 15:05:45;;;;;;;3.90;2.40;;;;;;;;;;5013474;28;20026;-75
2023/08/24 15:08:11;;;;;;;5.88;2.85;;;;;;;;;;5007520;28;20026;-75
2023/08/24 15:10:40;;;;;;;3.80;2.30;;;;;;;;;;5012631;28;20025;-77